sensor_id;sensor_type;location;lat;lon;timestamp;P1;durP1;ratioP1;P2;durP2;ratioP2
5133;SDS011;2585;48.696;10.066;2024-02-26T00:01:58;15.48;;;8.30;;
5133;SDS011;2585;48.696;10.066;2024-02-26T00:04:25;9.70;;;5.07;;
5133;SDS011;2585;48.696;10.066;2024-02-26T00:06:52;9.82;;;5.95;;
5133;SDS011;2585;48.696;10.066;2024-02-26T00:09:21;22.55;;;9.80;;
5133;SDS011;2585;48.696;10.066;2024-02-26T00:11:47;14.63;;;7.72;;
5133;SDS011;2585;48.696;10.066;2024-02-26T00:14:14;34.20;;;11.13;;
5133;SDS011;2585;48.696;10.066;2024-02-26T00:16:41;22.58;;;10.13;;
5133;SDS011;2585;48.696;10.066;2024-02-26T00:19:08;29.58;;;11.60;;
5133;SDS011;2585;48.696;10.066;2024-02-26T00:21:35;26.85;;;10.20;;
5133;SDS011;2585;48.696;10.066;2024-02-26T00:24:02;21.65;;;7.78;;
5133;SDS011;2585;48.696;10.066;2024-02-26T00:26:29;18.13;;;8.45;;
5133;SDS011;2585;48.696;10.066;2024-02-26T00:28:55;23.55;;;9.23;;
5133;SDS011;2585;48.696;10.066;2024-02-26T00:31:22;17.80;;;7.78;;
5133;SDS011;2585;48.696;10.066;2024-02-26T00:33:49;21.90;;;7.90;;
5133;SDS011;2585;48.696;10.066;2024-02-26T00:36:16;13.15;;;6.70;;
5133;SDS011;2585;48.696;10.066;2024-02-26T00:38:45;16.20;;;7.15;;
5133;SDS011;2585;48.696;10.066;2024-02-26T00:41:17;18.50;;;7.47;;
5133;SDS011;2585;48.696;10.066;2024-02-26T00:43:45;18.65;;;7.18;;
5133;SDS011;2585;48.696;10.066;2024-02-26T00:46:12;14.15;;;7.07;;
5133;SDS011;2585;48.696;10.066;2024-02-26T00:48:39;11.60;;;5.43;;
5133;SDS011;2585;48.696;10.066;2024-02-26T00:51:06;12.43;;;5.47;;
5133;SDS011;2585;48.696;10.066;2024-02-26T00:53:34;15.57;;;5.10;;
5133;SDS011;2585;48.696;10.066;2024-02-26T00:56:01;14.55;;;6.57;;
5133;SDS011;2585;48.696;10.066;2024-02-26T00:58:28;10.90;;;5.45;;
5133;SDS011;2585;48.696;10.066;2024-02-26T01:00:54;11.70;;;5.63;;
5133;SDS011;2585;48.696;10.066;2024-02-26T01:03:21;8.30;;;4.60;;
5133;SDS011;2585;48.696;10.066;2024-02-26T01:05:48;14.20;;;5.38;;
5133;SDS011;2585;48.696;10.066;2024-02-26T01:08:15;10.13;;;6.07;;
5133;SDS011;2585;48.696;10.066;2024-02-26T01:10:42;14.23;;;6.13;;
5133;SDS011;2585;48.696;10.066;2024-02-26T01:13:09;12.20;;;6.45;;
5133;SDS011;2585;48.696;10.066;2024-02-26T01:15:36;11.57;;;5.25;;
5133;SDS011;2585;48.696;10.066;2024-02-26T01:18:03;9.70;;;5.90;;
5133;SDS011;2585;48.696;10.066;2024-02-26T01:20:30;9.15;;;5.60;;
5133;SDS011;2585;48.696;10.066;2024-02-26T01:22:57;12.13;;;5.45;;
5133;SDS011;2585;48.696;10.066;2024-02-26T01:25:24;10.02;;;5.22;;
5133;SDS011;2585;48.696;10.066;2024-02-26T01:27:50;8.65;;;5.35;;
5133;SDS011;2585;48.696;10.066;2024-02-26T01:30:17;6.47;;;4.40;;
5133;SDS011;2585;48.696;10.066;2024-02-26T01:32:44;9.75;;;5.40;;
5133;SDS011;2585;48.696;10.066;2024-02-26T01:35:11;10.50;;;6.13;;
5133;SDS011;2585;48.696;10.066;2024-02-26T01:37:38;8.60;;;4.53;;
5133;SDS011;2585;48.696;10.066;2024-02-26T01:40:05;10.63;;;5.55;;
5133;SDS011;2585;48.696;10.066;2024-02-26T01:42:33;7.38;;;5.15;;
5133;SDS011;2585;48.696;10.066;2024-02-26T01:45:00;9.57;;;5.80;;
5133;SDS011;2585;48.696;10.066;2024-02-26T01:47:27;9.98;;;5.43;;
5133;SDS011;2585;48.696;10.066;2024-02-26T01:49:55;9.55;;;5.50;;
5133;SDS011;2585;48.696;10.066;2024-02-26T01:52:22;9.85;;;5.30;;
5133;SDS011;2585;48.696;10.066;2024-02-26T01:54:49;5.95;;;4.43;;
5133;SDS011;2585;48.696;10.066;2024-02-26T01:57:16;9.43;;;5.00;;
5133;SDS011;2585;48.696;10.066;2024-02-26T01:59:44;7.80;;;5.05;;
5133;SDS011;2585;48.696;10.066;2024-02-26T02:02:11;10.80;;;5.25;;
5133;SDS011;2585;48.696;10.066;2024-02-26T02:04:39;9.90;;;5.38;;
5133;SDS011;2585;48.696;10.066;2024-02-26T02:07:06;8.30;;;5.38;;
5133;SDS011;2585;48.696;10.066;2024-02-26T02:09:33;8.43;;;4.53;;
5133;SDS011;2585;48.696;10.066;2024-02-26T02:12:01;17.35;;;6.93;;
5133;SDS011;2585;48.696;10.066;2024-02-26T02:14:28;7.43;;;4.85;;
5133;SDS011;2585;48.696;10.066;2024-02-26T02:16:55;9.43;;;4.88;;
5133;SDS011;2585;48.696;10.066;2024-02-26T02:19:22;8.10;;;5.00;;
5133;SDS011;2585;48.696;10.066;2024-02-26T02:21:49;8.07;;;5.32;;
5133;SDS011;2585;48.696;10.066;2024-02-26T02:24:16;9.30;;;5.00;;
5133;SDS011;2585;48.696;10.066;2024-02-26T02:26:43;10.13;;;5.22;;
5133;SDS011;2585;48.696;10.066;2024-02-26T02:29:10;7.25;;;5.03;;
5133;SDS011;2585;48.696;10.066;2024-02-26T02:31:37;13.60;;;5.88;;
5133;SDS011;2585;48.696;10.066;2024-02-26T02:34:04;8.38;;;5.57;;
5133;SDS011;2585;48.696;10.066;2024-02-26T02:36:32;11.00;;;5.63;;
5133;SDS011;2585;48.696;10.066;2024-02-26T02:38:59;12.90;;;5.57;;
5133;SDS011;2585;48.696;10.066;2024-02-26T02:41:26;10.07;;;5.35;;
5133;SDS011;2585;48.696;10.066;2024-02-26T02:43:53;9.35;;;5.55;;
5133;SDS011;2585;48.696;10.066;2024-02-26T02:46:20;8.82;;;4.90;;
5133;SDS011;2585;48.696;10.066;2024-02-26T02:48:47;8.57;;;5.30;;
5133;SDS011;2585;48.696;10.066;2024-02-26T02:51:14;9.77;;;5.10;;
5133;SDS011;2585;48.696;10.066;2024-02-26T02:53:41;10.02;;;5.20;;
5133;SDS011;2585;48.696;10.066;2024-02-26T02:56:08;9.63;;;5.72;;
5133;SDS011;2585;48.696;10.066;2024-02-26T02:58:34;10.20;;;5.80;;
5133;SDS011;2585;48.696;10.066;2024-02-26T03:01:01;7.80;;;5.63;;
5133;SDS011;2585;48.696;10.066;2024-02-26T03:03:28;9.35;;;5.82;;
5133;SDS011;2585;48.696;10.066;2024-02-26T03:05:55;10.13;;;5.00;;
5133;SDS011;2585;48.696;10.066;2024-02-26T03:08:22;8.65;;;5.28;;
5133;SDS011;2585;48.696;10.066;2024-02-26T03:10:50;7.40;;;4.88;;
5133;SDS011;2585;48.696;10.066;2024-02-26T03:13:34;10.13;;;4.88;;
5133;SDS011;2585;48.696;10.066;2024-02-26T03:16:04;10.60;;;4.72;;
5133;SDS011;2585;48.696;10.066;2024-02-26T03:18:32;7.18;;;4.85;;
5133;SDS011;2585;48.696;10.066;2024-02-26T03:20:59;8.18;;;5.30;;
5133;SDS011;2585;48.696;10.066;2024-02-26T03:23:26;8.80;;;5.05;;
5133;SDS011;2585;48.696;10.066;2024-02-26T03:25:52;8.30;;;4.95;;
5133;SDS011;2585;48.696;10.066;2024-02-26T03:28:19;7.03;;;4.72;;
5133;SDS011;2585;48.696;10.066;2024-02-26T03:30:49;12.45;;;5.15;;
5133;SDS011;2585;48.696;10.066;2024-02-26T03:33:15;7.30;;;4.30;;
5133;SDS011;2585;48.696;10.066;2024-02-26T03:35:42;7.65;;;4.95;;
5133;SDS011;2585;48.696;10.066;2024-02-26T03:38:12;8.80;;;5.15;;
5133;SDS011;2585;48.696;10.066;2024-02-26T03:40:39;8.27;;;4.90;;
5133;SDS011;2585;48.696;10.066;2024-02-26T03:43:06;11.35;;;5.28;;
5133;SDS011;2585;48.696;10.066;2024-02-26T03:45:33;15.13;;;5.03;;
5133;SDS011;2585;48.696;10.066;2024-02-26T03:48:00;7.50;;;5.25;;
5133;SDS011;2585;48.696;10.066;2024-02-26T03:50:27;14.55;;;6.93;;
5133;SDS011;2585;48.696;10.066;2024-02-26T03:52:54;12.35;;;7.05;;
5133;SDS011;2585;48.696;10.066;2024-02-26T03:55:22;10.93;;;5.65;;
5133;SDS011;2585;48.696;10.066;2024-02-26T03:57:51;8.32;;;4.70;;
5133;SDS011;2585;48.696;10.066;2024-02-26T04:00:18;8.20;;;5.10;;
5133;SDS011;2585;48.696;10.066;2024-02-26T04:02:48;9.50;;;5.63;;
5133;SDS011;2585;48.696;10.066;2024-02-26T04:05:15;10.20;;;5.60;;
5133;SDS011;2585;48.696;10.066;2024-02-26T04:07:42;8.45;;;5.10;;
5133;SDS011;2585;48.696;10.066;2024-02-26T04:10:12;12.50;;;4.82;;
5133;SDS011;2585;48.696;10.066;2024-02-26T04:12:39;10.80;;;5.00;;
5133;SDS011;2585;48.696;10.066;2024-02-26T04:15:08;8.43;;;4.78;;
5133;SDS011;2585;48.696;10.066;2024-02-26T04:17:36;10.77;;;5.95;;
5133;SDS011;2585;48.696;10.066;2024-02-26T04:20:03;14.50;;;6.28;;
5133;SDS011;2585;48.696;10.066;2024-02-26T04:22:34;14.30;;;6.82;;
5133;SDS011;2585;48.696;10.066;2024-02-26T04:25:00;14.63;;;7.20;;
5133;SDS011;2585;48.696;10.066;2024-02-26T04:27:27;11.88;;;6.15;;
5133;SDS011;2585;48.696;10.066;2024-02-26T04:29:54;15.82;;;7.05;;
5133;SDS011;2585;48.696;10.066;2024-02-26T04:32:21;8.68;;;4.95;;
5133;SDS011;2585;48.696;10.066;2024-02-26T04:34:48;7.40;;;4.40;;
5133;SDS011;2585;48.696;10.066;2024-02-26T04:37:15;9.18;;;5.25;;
5133;SDS011;2585;48.696;10.066;2024-02-26T04:39:42;8.57;;;5.07;;
5133;SDS011;2585;48.696;10.066;2024-02-26T04:42:08;9.48;;;4.97;;
5133;SDS011;2585;48.696;10.066;2024-02-26T04:44:35;8.93;;;4.40;;
5133;SDS011;2585;48.696;10.066;2024-02-26T04:47:02;10.27;;;4.95;;
5133;SDS011;2585;48.696;10.066;2024-02-26T04:49:29;6.85;;;4.63;;
5133;SDS011;2585;48.696;10.066;2024-02-26T04:51:56;9.30;;;4.53;;
5133;SDS011;2585;48.696;10.066;2024-02-26T04:54:23;7.53;;;4.22;;
5133;SDS011;2585;48.696;10.066;2024-02-26T04:56:50;7.15;;;4.10;;
5133;SDS011;2585;48.696;10.066;2024-02-26T04:59:17;6.88;;;4.30;;
5133;SDS011;2585;48.696;10.066;2024-02-26T05:01:44;6.88;;;4.88;;
5133;SDS011;2585;48.696;10.066;2024-02-26T05:04:11;10.55;;;5.63;;
5133;SDS011;2585;48.696;10.066;2024-02-26T05:06:39;11.80;;;6.03;;
5133;SDS011;2585;48.696;10.066;2024-02-26T05:09:05;12.68;;;5.90;;
5133;SDS011;2585;48.696;10.066;2024-02-26T05:11:32;9.40;;;5.45;;
5133;SDS011;2585;48.696;10.066;2024-02-26T05:13:59;7.85;;;5.32;;
5133;SDS011;2585;48.696;10.066;2024-02-26T05:16:27;9.50;;;5.50;;
5133;SDS011;2585;48.696;10.066;2024-02-26T05:18:56;13.15;;;6.35;;
5133;SDS011;2585;48.696;10.066;2024-02-26T05:21:24;9.70;;;5.53;;
5133;SDS011;2585;48.696;10.066;2024-02-26T05:23:51;9.48;;;5.68;;
5133;SDS011;2585;48.696;10.066;2024-02-26T05:26:21;7.78;;;5.00;;
5133;SDS011;2585;48.696;10.066;2024-02-26T05:28:48;9.90;;;5.00;;
5133;SDS011;2585;48.696;10.066;2024-02-26T05:31:16;7.05;;;4.68;;
5133;SDS011;2585;48.696;10.066;2024-02-26T05:33:43;11.07;;;6.03;;
5133;SDS011;2585;48.696;10.066;2024-02-26T05:36:10;10.82;;;5.88;;
5133;SDS011;2585;48.696;10.066;2024-02-26T05:38:44;7.82;;;4.95;;
5133;SDS011;2585;48.696;10.066;2024-02-26T05:41:13;12.27;;;7.10;;
5133;SDS011;2585;48.696;10.066;2024-02-26T05:43:49;7.25;;;4.68;;
5133;SDS011;2585;48.696;10.066;2024-02-26T05:46:19;8.38;;;5.47;;
5133;SDS011;2585;48.696;10.066;2024-02-26T05:48:47;7.80;;;5.55;;
5133;SDS011;2585;48.696;10.066;2024-02-26T05:51:16;9.88;;;5.47;;
5133;SDS011;2585;48.696;10.066;2024-02-26T05:53:42;7.80;;;5.78;;
5133;SDS011;2585;48.696;10.066;2024-02-26T05:56:09;7.55;;;5.00;;
5133;SDS011;2585;48.696;10.066;2024-02-26T05:58:36;7.90;;;5.22;;
5133;SDS011;2585;48.696;10.066;2024-02-26T06:01:04;8.18;;;5.40;;
5133;SDS011;2585;48.696;10.066;2024-02-26T06:03:31;15.70;;;6.10;;
5133;SDS011;2585;48.696;10.066;2024-02-26T06:05:58;14.50;;;5.70;;
5133;SDS011;2585;48.696;10.066;2024-02-26T06:08:25;11.65;;;7.70;;
5133;SDS011;2585;48.696;10.066;2024-02-26T06:10:52;10.68;;;6.00;;
5133;SDS011;2585;48.696;10.066;2024-02-26T06:13:19;11.02;;;6.35;;
5133;SDS011;2585;48.696;10.066;2024-02-26T06:15:46;8.07;;;5.25;;
5133;SDS011;2585;48.696;10.066;2024-02-26T06:18:13;10.10;;;6.50;;
5133;SDS011;2585;48.696;10.066;2024-02-26T06:20:40;13.07;;;6.88;;
5133;SDS011;2585;48.696;10.066;2024-02-26T06:23:07;11.63;;;6.47;;
5133;SDS011;2585;48.696;10.066;2024-02-26T06:25:34;13.32;;;7.78;;
5133;SDS011;2585;48.696;10.066;2024-02-26T06:28:01;15.13;;;8.43;;
5133;SDS011;2585;48.696;10.066;2024-02-26T06:30:28;11.77;;;6.85;;
5133;SDS011;2585;48.696;10.066;2024-02-26T06:32:54;9.82;;;6.80;;
5133;SDS011;2585;48.696;10.066;2024-02-26T06:35:21;7.57;;;5.15;;
5133;SDS011;2585;48.696;10.066;2024-02-26T06:37:48;10.50;;;6.13;;
5133;SDS011;2585;48.696;10.066;2024-02-26T06:40:19;15.55;;;8.90;;
5133;SDS011;2585;48.696;10.066;2024-02-26T06:42:46;18.48;;;11.18;;
5133;SDS011;2585;48.696;10.066;2024-02-26T06:45:15;16.92;;;9.00;;
5133;SDS011;2585;48.696;10.066;2024-02-26T06:47:42;14.07;;;8.35;;
5133;SDS011;2585;48.696;10.066;2024-02-26T06:50:11;16.45;;;10.23;;
5133;SDS011;2585;48.696;10.066;2024-02-26T06:52:39;15.95;;;8.95;;
5133;SDS011;2585;48.696;10.066;2024-02-26T06:55:06;18.43;;;10.37;;
5133;SDS011;2585;48.696;10.066;2024-02-26T06:57:35;16.65;;;9.80;;
5133;SDS011;2585;48.696;10.066;2024-02-26T07:00:02;15.95;;;10.48;;
5133;SDS011;2585;48.696;10.066;2024-02-26T07:02:30;14.27;;;9.25;;
5133;SDS011;2585;48.696;10.066;2024-02-26T07:04:57;14.45;;;8.07;;
5133;SDS011;2585;48.696;10.066;2024-02-26T07:07:25;13.63;;;8.82;;
5133;SDS011;2585;48.696;10.066;2024-02-26T07:09:52;14.60;;;7.10;;
5133;SDS011;2585;48.696;10.066;2024-02-26T07:12:19;11.50;;;7.20;;
5133;SDS011;2585;48.696;10.066;2024-02-26T07:14:48;10.95;;;7.68;;
5133;SDS011;2585;48.696;10.066;2024-02-26T07:17:16;12.18;;;7.78;;
5133;SDS011;2585;48.696;10.066;2024-02-26T07:19:43;11.77;;;7.05;;
5133;SDS011;2585;48.696;10.066;2024-02-26T07:22:10;14.68;;;7.90;;
5133;SDS011;2585;48.696;10.066;2024-02-26T07:24:37;14.50;;;7.78;;
5133;SDS011;2585;48.696;10.066;2024-02-26T07:27:03;13.05;;;7.95;;
5133;SDS011;2585;48.696;10.066;2024-02-26T07:29:30;15.32;;;8.30;;
5133;SDS011;2585;48.696;10.066;2024-02-26T07:31:57;14.35;;;7.35;;
5133;SDS011;2585;48.696;10.066;2024-02-26T07:34:24;14.68;;;7.88;;
5133;SDS011;2585;48.696;10.066;2024-02-26T07:36:56;11.35;;;6.65;;
5133;SDS011;2585;48.696;10.066;2024-02-26T07:39:23;16.13;;;7.40;;
5133;SDS011;2585;48.696;10.066;2024-02-26T07:41:50;7.75;;;6.05;;
5133;SDS011;2585;48.696;10.066;2024-02-26T07:44:19;10.10;;;6.40;;
5133;SDS011;2585;48.696;10.066;2024-02-26T07:46:46;11.98;;;7.05;;
5133;SDS011;2585;48.696;10.066;2024-02-26T07:49:13;16.27;;;9.57;;
5133;SDS011;2585;48.696;10.066;2024-02-26T07:51:40;13.48;;;6.82;;
5133;SDS011;2585;48.696;10.066;2024-02-26T07:54:08;11.67;;;6.57;;
5133;SDS011;2585;48.696;10.066;2024-02-26T07:56:35;9.40;;;5.50;;
5133;SDS011;2585;48.696;10.066;2024-02-26T07:59:02;11.80;;;7.17;;
5133;SDS011;2585;48.696;10.066;2024-02-26T08:01:28;8.57;;;5.90;;
5133;SDS011;2585;48.696;10.066;2024-02-26T08:03:55;8.60;;;6.00;;
5133;SDS011;2585;48.696;10.066;2024-02-26T08:06:23;10.17;;;6.10;;
5133;SDS011;2585;48.696;10.066;2024-02-26T08:08:51;10.67;;;7.10;;
5133;SDS011;2585;48.696;10.066;2024-02-26T08:11:18;11.90;;;7.20;;
5133;SDS011;2585;48.696;10.066;2024-02-26T08:13:45;14.00;;;6.47;;
5133;SDS011;2585;48.696;10.066;2024-02-26T08:16:12;13.40;;;6.77;;
5133;SDS011;2585;48.696;10.066;2024-02-26T08:18:38;15.03;;;7.50;;
5133;SDS011;2585;48.696;10.066;2024-02-26T08:21:06;9.63;;;6.43;;
5133;SDS011;2585;48.696;10.066;2024-02-26T08:23:35;10.30;;;6.83;;
5133;SDS011;2585;48.696;10.066;2024-02-26T08:26:01;9.70;;;5.97;;
5133;SDS011;2585;48.696;10.066;2024-02-26T08:28:30;9.13;;;6.17;;
5133;SDS011;2585;48.696;10.066;2024-02-26T08:30:57;12.23;;;7.33;;
5133;SDS011;2585;48.696;10.066;2024-02-26T08:33:24;11.63;;;7.40;;
5133;SDS011;2585;48.696;10.066;2024-02-26T08:35:51;13.03;;;8.40;;
5133;SDS011;2585;48.696;10.066;2024-02-26T08:38:18;15.20;;;7.40;;
5133;SDS011;2585;48.696;10.066;2024-02-26T08:40:45;15.23;;;7.50;;
5133;SDS011;2585;48.696;10.066;2024-02-26T08:43:12;14.23;;;7.17;;
5133;SDS011;2585;48.696;10.066;2024-02-26T08:45:39;11.93;;;6.87;;
5133;SDS011;2585;48.696;10.066;2024-02-26T08:48:06;12.17;;;6.90;;
5133;SDS011;2585;48.696;10.066;2024-02-26T08:50:34;11.37;;;7.27;;
5133;SDS011;2585;48.696;10.066;2024-02-26T08:53:01;14.90;;;8.30;;
5133;SDS011;2585;48.696;10.066;2024-02-26T08:55:33;15.27;;;9.07;;
5133;SDS011;2585;48.696;10.066;2024-02-26T08:58:00;14.93;;;8.83;;
5133;SDS011;2585;48.696;10.066;2024-02-26T09:00:26;13.50;;;7.87;;
5133;SDS011;2585;48.696;10.066;2024-02-26T09:02:53;13.10;;;8.17;;
5133;SDS011;2585;48.696;10.066;2024-02-26T09:05:20;15.73;;;9.67;;
5133;SDS011;2585;48.696;10.066;2024-02-26T09:07:47;15.27;;;7.73;;
5133;SDS011;2585;48.696;10.066;2024-02-26T09:10:14;14.33;;;9.10;;
5133;SDS011;2585;48.696;10.066;2024-02-26T09:12:41;13.10;;;8.07;;
5133;SDS011;2585;48.696;10.066;2024-02-26T09:15:08;13.57;;;8.17;;
5133;SDS011;2585;48.696;10.066;2024-02-26T09:17:35;13.07;;;7.93;;
5133;SDS011;2585;48.696;10.066;2024-02-26T09:20:02;10.03;;;7.13;;
5133;SDS011;2585;48.696;10.066;2024-02-26T09:22:30;12.13;;;7.57;;
5133;SDS011;2585;48.696;10.066;2024-02-26T09:24:57;11.67;;;7.80;;
5133;SDS011;2585;48.696;10.066;2024-02-26T09:27:24;13.17;;;7.40;;
5133;SDS011;2585;48.696;10.066;2024-02-26T09:29:51;14.33;;;7.00;;
5133;SDS011;2585;48.696;10.066;2024-02-26T09:32:17;11.20;;;7.00;;
5133;SDS011;2585;48.696;10.066;2024-02-26T09:34:44;9.83;;;6.70;;
5133;SDS011;2585;48.696;10.066;2024-02-26T09:37:11;9.20;;;6.13;;
5133;SDS011;2585;48.696;10.066;2024-02-26T09:39:47;12.07;;;6.57;;
5133;SDS011;2585;48.696;10.066;2024-02-26T09:42:14;8.90;;;5.97;;
5133;SDS011;2585;48.696;10.066;2024-02-26T09:44:45;11.30;;;6.43;;
5133;SDS011;2585;48.696;10.066;2024-02-26T09:47:15;9.10;;;6.30;;
5133;SDS011;2585;48.696;10.066;2024-02-26T09:49:43;12.17;;;6.57;;
5133;SDS011;2585;48.696;10.066;2024-02-26T09:52:12;10.67;;;5.40;;
5133;SDS011;2585;48.696;10.066;2024-02-26T09:54:41;10.30;;;5.50;;
5133;SDS011;2585;48.696;10.066;2024-02-26T09:57:13;9.47;;;5.40;;
5133;SDS011;2585;48.696;10.066;2024-02-26T09:59:43;9.63;;;5.50;;
5133;SDS011;2585;48.696;10.066;2024-02-26T10:02:13;8.63;;;5.13;;
5133;SDS011;2585;48.696;10.066;2024-02-26T10:04:41;8.00;;;4.93;;
5133;SDS011;2585;48.696;10.066;2024-02-26T10:07:14;8.10;;;5.03;;
5133;SDS011;2585;48.696;10.066;2024-02-26T10:09:41;7.10;;;4.50;;
5133;SDS011;2585;48.696;10.066;2024-02-26T10:12:09;9.53;;;5.93;;
5133;SDS011;2585;48.696;10.066;2024-02-26T10:14:38;8.97;;;5.33;;
5133;SDS011;2585;48.696;10.066;2024-02-26T10:17:08;8.47;;;4.70;;
5133;SDS011;2585;48.696;10.066;2024-02-26T10:19:35;8.07;;;5.23;;
5133;SDS011;2585;48.696;10.066;2024-02-26T10:22:11;8.17;;;4.70;;
5133;SDS011;2585;48.696;10.066;2024-02-26T10:24:38;9.77;;;5.83;;
5133;SDS011;2585;48.696;10.066;2024-02-26T10:27:05;8.57;;;5.17;;
5133;SDS011;2585;48.696;10.066;2024-02-26T10:29:32;6.60;;;4.80;;
5133;SDS011;2585;48.696;10.066;2024-02-26T10:31:59;5.13;;;3.90;;
5133;SDS011;2585;48.696;10.066;2024-02-26T10:34:26;10.63;;;4.40;;
5133;SDS011;2585;48.696;10.066;2024-02-26T10:36:54;5.60;;;3.53;;
5133;SDS011;2585;48.696;10.066;2024-02-26T10:39:22;5.10;;;3.80;;
5133;SDS011;2585;48.696;10.066;2024-02-26T10:41:49;5.00;;;3.77;;
5133;SDS011;2585;48.696;10.066;2024-02-26T10:44:16;8.60;;;5.03;;
5133;SDS011;2585;48.696;10.066;2024-02-26T10:46:48;6.33;;;4.80;;
5133;SDS011;2585;48.696;10.066;2024-02-26T10:49:16;6.03;;;4.40;;
5133;SDS011;2585;48.696;10.066;2024-02-26T10:51:45;7.43;;;4.30;;
5133;SDS011;2585;48.696;10.066;2024-02-26T10:54:21;5.70;;;3.80;;
5133;SDS011;2585;48.696;10.066;2024-02-26T10:56:50;5.73;;;3.73;;
5133;SDS011;2585;48.696;10.066;2024-02-26T10:59:17;9.40;;;5.20;;
5133;SDS011;2585;48.696;10.066;2024-02-26T11:01:50;9.50;;;5.30;;
5133;SDS011;2585;48.696;10.066;2024-02-26T11:04:17;6.30;;;4.60;;
5133;SDS011;2585;48.696;10.066;2024-02-26T11:06:45;5.70;;;3.90;;
5133;SDS011;2585;48.696;10.066;2024-02-26T11:09:15;5.33;;;4.17;;
5133;SDS011;2585;48.696;10.066;2024-02-26T11:11:43;6.60;;;4.20;;
5133;SDS011;2585;48.696;10.066;2024-02-26T11:14:11;5.77;;;4.00;;
5133;SDS011;2585;48.696;10.066;2024-02-26T11:16:39;6.93;;;3.73;;
5133;SDS011;2585;48.696;10.066;2024-02-26T11:19:09;6.20;;;4.00;;
5133;SDS011;2585;48.696;10.066;2024-02-26T11:21:39;8.27;;;5.90;;
5133;SDS011;2585;48.696;10.066;2024-02-26T11:24:12;7.30;;;4.40;;
5133;SDS011;2585;48.696;10.066;2024-02-26T11:26:48;6.00;;;4.13;;
5133;SDS011;2585;48.696;10.066;2024-02-26T11:29:21;5.97;;;4.00;;
5133;SDS011;2585;48.696;10.066;2024-02-26T11:31:50;7.67;;;4.37;;
5133;SDS011;2585;48.696;10.066;2024-02-26T11:34:18;6.87;;;4.40;;
5133;SDS011;2585;48.696;10.066;2024-02-26T11:36:46;5.50;;;3.90;;
5133;SDS011;2585;48.696;10.066;2024-02-26T11:39:13;5.20;;;4.07;;
5133;SDS011;2585;48.696;10.066;2024-02-26T11:41:43;10.53;;;4.80;;
5133;SDS011;2585;48.696;10.066;2024-02-26T11:44:10;7.03;;;4.43;;
5133;SDS011;2585;48.696;10.066;2024-02-26T11:46:40;8.93;;;4.60;;
5133;SDS011;2585;48.696;10.066;2024-02-26T11:51:55;6.03;;;4.20;;
5133;SDS011;2585;48.696;10.066;2024-02-26T12:00:03;5.83;;;3.73;;
5133;SDS011;2585;48.696;10.066;2024-02-26T12:05:15;4.20;;;2.90;;
5133;SDS011;2585;48.696;10.066;2024-02-26T12:07:47;6.90;;;3.07;;
5133;SDS011;2585;48.696;10.066;2024-02-26T12:10:32;10.53;;;4.10;;
5133;SDS011;2585;48.696;10.066;2024-02-26T12:13:10;7.13;;;3.50;;
5133;SDS011;2585;48.696;10.066;2024-02-26T12:15:47;5.47;;;3.43;;
5133;SDS011;2585;48.696;10.066;2024-02-26T12:18:23;5.17;;;2.60;;
5133;SDS011;2585;48.696;10.066;2024-02-26T12:20:59;7.37;;;2.03;;
5133;SDS011;2585;48.696;10.066;2024-02-26T12:23:30;3.53;;;2.10;;
5133;SDS011;2585;48.696;10.066;2024-02-26T12:26:00;7.23;;;2.50;;
5133;SDS011;2585;48.696;10.066;2024-02-26T12:28:32;6.50;;;2.30;;
5133;SDS011;2585;48.696;10.066;2024-02-26T12:30:59;5.40;;;1.90;;
5133;SDS011;2585;48.696;10.066;2024-02-26T12:33:26;6.40;;;2.10;;
5133;SDS011;2585;48.696;10.066;2024-02-26T12:35:55;3.30;;;1.90;;
5133;SDS011;2585;48.696;10.066;2024-02-26T12:38:23;4.00;;;2.03;;
5133;SDS011;2585;48.696;10.066;2024-02-26T12:40:50;2.77;;;1.87;;
5133;SDS011;2585;48.696;10.066;2024-02-26T12:43:17;2.40;;;1.90;;
5133;SDS011;2585;48.696;10.066;2024-02-26T12:45:44;5.20;;;2.20;;
5133;SDS011;2585;48.696;10.066;2024-02-26T12:48:13;4.20;;;1.37;;
5133;SDS011;2585;48.696;10.066;2024-02-26T12:50:44;1.93;;;1.60;;
5133;SDS011;2585;48.696;10.066;2024-02-26T12:53:11;2.20;;;1.70;;
5133;SDS011;2585;48.696;10.066;2024-02-26T12:55:38;4.17;;;1.70;;
5133;SDS011;2585;48.696;10.066;2024-02-26T12:58:06;3.53;;;1.80;;
5133;SDS011;2585;48.696;10.066;2024-02-26T13:00:34;2.10;;;1.50;;
5133;SDS011;2585;48.696;10.066;2024-02-26T13:03:01;1.70;;;1.60;;
5133;SDS011;2585;48.696;10.066;2024-02-26T13:05:28;3.00;;;2.70;;
5133;SDS011;2585;48.696;10.066;2024-02-26T13:07:56;2.90;;;2.10;;
5133;SDS011;2585;48.696;10.066;2024-02-26T13:10:23;3.47;;;2.10;;
5133;SDS011;2585;48.696;10.066;2024-02-26T13:12:51;3.33;;;1.97;;
5133;SDS011;2585;48.696;10.066;2024-02-26T13:15:19;2.60;;;1.97;;
5133;SDS011;2585;48.696;10.066;2024-02-26T13:17:48;5.53;;;2.30;;
5133;SDS011;2585;48.696;10.066;2024-02-26T13:20:29;5.53;;;2.30;;
5133;SDS011;2585;48.696;10.066;2024-02-26T13:23:01;3.07;;;1.73;;
5133;SDS011;2585;48.696;10.066;2024-02-26T13:25:28;2.47;;;1.40;;
5133;SDS011;2585;48.696;10.066;2024-02-26T13:28:17;2.47;;;1.67;;
5133;SDS011;2585;48.696;10.066;2024-02-26T13:30:55;2.43;;;1.70;;
5133;SDS011;2585;48.696;10.066;2024-02-26T13:33:24;4.60;;;1.80;;
5133;SDS011;2585;48.696;10.066;2024-02-26T13:35:54;1.50;;;1.40;;
5133;SDS011;2585;48.696;10.066;2024-02-26T13:38:22;3.57;;;1.27;;
5133;SDS011;2585;48.696;10.066;2024-02-26T13:40:52;3.90;;;2.00;;
5133;SDS011;2585;48.696;10.066;2024-02-26T13:43:19;2.70;;;1.73;;
5133;SDS011;2585;48.696;10.066;2024-02-26T13:45:47;2.50;;;1.60;;
5133;SDS011;2585;48.696;10.066;2024-02-26T13:48:14;3.17;;;2.60;;
5133;SDS011;2585;48.696;10.066;2024-02-26T13:50:42;3.03;;;1.80;;
5133;SDS011;2585;48.696;10.066;2024-02-26T13:53:09;1.73;;;1.60;;
5133;SDS011;2585;48.696;10.066;2024-02-26T13:55:37;9.73;;;2.33;;
5133;SDS011;2585;48.696;10.066;2024-02-26T13:58:04;2.80;;;2.00;;
5133;SDS011;2585;48.696;10.066;2024-02-26T14:00:31;1.80;;;1.60;;
5133;SDS011;2585;48.696;10.066;2024-02-26T14:03:00;2.10;;;1.70;;
5133;SDS011;2585;48.696;10.066;2024-02-26T14:05:28;3.00;;;1.90;;
5133;SDS011;2585;48.696;10.066;2024-02-26T14:07:55;2.00;;;1.60;;
5133;SDS011;2585;48.696;10.066;2024-02-26T14:10:23;3.80;;;2.60;;
5133;SDS011;2585;48.696;10.066;2024-02-26T14:12:49;4.53;;;2.40;;
5133;SDS011;2585;48.696;10.066;2024-02-26T14:15:16;3.10;;;2.07;;
5133;SDS011;2585;48.696;10.066;2024-02-26T14:17:43;3.70;;;2.40;;
5133;SDS011;2585;48.696;10.066;2024-02-26T14:20:11;4.27;;;2.30;;
5133;SDS011;2585;48.696;10.066;2024-02-26T14:22:38;3.63;;;2.20;;
5133;SDS011;2585;48.696;10.066;2024-02-26T14:25:04;5.87;;;2.20;;
5133;SDS011;2585;48.696;10.066;2024-02-26T14:27:31;1.87;;;1.67;;
5133;SDS011;2585;48.696;10.066;2024-02-26T14:29:59;5.60;;;2.00;;
5133;SDS011;2585;48.696;10.066;2024-02-26T14:32:25;7.23;;;2.27;;
5133;SDS011;2585;48.696;10.066;2024-02-26T14:34:55;5.80;;;2.20;;
5133;SDS011;2585;48.696;10.066;2024-02-26T14:37:23;6.23;;;2.80;;
5133;SDS011;2585;48.696;10.066;2024-02-26T14:39:49;5.43;;;3.33;;
5133;SDS011;2585;48.696;10.066;2024-02-26T14:42:18;4.87;;;2.70;;
5133;SDS011;2585;48.696;10.066;2024-02-26T14:44:45;5.67;;;2.63;;
5133;SDS011;2585;48.696;10.066;2024-02-26T14:47:14;5.93;;;2.50;;
5133;SDS011;2585;48.696;10.066;2024-02-26T14:49:41;3.10;;;2.37;;
5133;SDS011;2585;48.696;10.066;2024-02-26T14:52:08;2.90;;;2.20;;
5133;SDS011;2585;48.696;10.066;2024-02-26T14:54:36;9.47;;;2.77;;
5133;SDS011;2585;48.696;10.066;2024-02-26T14:57:06;5.77;;;2.43;;
5133;SDS011;2585;48.696;10.066;2024-02-26T14:59:33;2.97;;;2.00;;
5133;SDS011;2585;48.696;10.066;2024-02-26T15:02:00;4.70;;;2.27;;
5133;SDS011;2585;48.696;10.066;2024-02-26T15:04:27;4.07;;;2.30;;
5133;SDS011;2585;48.696;10.066;2024-02-26T15:06:54;4.70;;;2.00;;
5133;SDS011;2585;48.696;10.066;2024-02-26T15:09:21;2.53;;;2.00;;
5133;SDS011;2585;48.696;10.066;2024-02-26T15:11:48;3.00;;;2.63;;